createdAt,value
2022-11-15T00:01:02.996Z,0.20
2022-11-15T00:03:34.208Z,0.21
2022-11-15T00:06:07.025Z,0.24
2022-11-15T00:08:38.290Z,0.27
2022-11-15T00:11:12.137Z,0.28
2022-11-15T00:13:43.339Z,0.29
2022-11-15T00:16:14.255Z,0.31
2022-11-15T00:18:50.415Z,0.36
2022-11-15T00:21:21.804Z,0.42
2022-11-15T00:23:52.920Z,0.45
2022-11-15T00:26:23.822Z,0.49
2022-11-15T00:28:56.612Z,0.53
2022-11-15T00:31:27.570Z,0.58
2022-11-15T00:33:58.331Z,0.61
2022-11-15T00:36:29.103Z,0.62
2022-11-15T00:39:00.103Z,0.59
2022-11-15T00:41:31.218Z,0.57
2022-11-15T00:44:02.232Z,0.53
2022-11-15T00:46:32.979Z,0.54
2022-11-15T00:49:04.246Z,0.54
2022-11-15T00:51:35.225Z,0.54
2022-11-15T00:54:08.835Z,0.55
2022-11-15T00:56:39.983Z,0.55
2022-11-15T00:59:10.981Z,0.56
2022-11-15T01:01:41.746Z,0.56
2022-11-15T01:04:12.894Z,0.55
2022-11-15T01:06:44.188Z,0.54
2022-11-15T01:09:15.681Z,0.55
2022-11-15T01:11:46.969Z,0.60
2022-11-15T01:14:22.797Z,0.62
2022-11-15T01:16:56.252Z,0.61
2022-11-15T01:19:27.347Z,0.60
2022-11-15T01:21:58.195Z,0.61
2022-11-15T01:24:29.138Z,0.66
2022-11-15T01:27:00.329Z,0.68
2022-11-15T01:29:30.202Z,0.70
2022-11-15T01:32:01.046Z,0.68
2022-11-15T01:34:32.180Z,0.66
2022-11-15T01:37:03.231Z,0.62
2022-11-15T01:39:32.873Z,0.62
2022-11-15T01:42:03.779Z,0.63
2022-11-15T01:44:43.946Z,0.65
2022-11-15T01:47:18.492Z,0.68
2022-11-15T01:49:56.456Z,0.69
2022-11-15T01:52:30.144Z,0.68
2022-11-15T01:55:06.996Z,0.66
2022-11-15T01:57:38.203Z,0.64
2022-11-15T02:00:11.932Z,0.65
2022-11-15T02:02:42.833Z,0.65
2022-11-15T02:05:14.032Z,0.65
2022-11-15T02:07:45.264Z,0.63
2022-11-15T02:10:20.109Z,0.64
2022-11-15T02:12:52.645Z,0.63
2022-11-15T02:15:26.460Z,0.55
2022-11-15T02:18:13.591Z,0.49
2022-11-15T02:20:54.143Z,0.44
2022-11-15T02:23:54.819Z,0.38
2022-11-15T02:27:14.500Z,0.34
2022-11-15T02:30:05.873Z,0.25
2022-11-15T02:32:44.034Z,0.24
2022-11-15T02:35:26.235Z,0.25
2022-11-15T02:38:01.854Z,0.27
2022-11-15T02:40:41.271Z,0.27
2022-11-15T02:43:34.046Z,0.24
2022-11-15T02:46:10.899Z,0.20
2022-11-15T02:48:43.747Z,0.17
2022-11-15T02:51:15.786Z,0.14
2022-11-15T02:53:46.788Z,0.13
2022-11-15T02:56:17.749Z,0.12
2022-11-15T02:59:24.902Z,0.11
2022-11-15T03:02:12.369Z,0.08
2022-11-15T03:04:54.175Z,0.04
2022-11-15T03:07:31.921Z,0.02
2022-11-15T03:10:08.783Z,-0.02
2022-11-15T03:12:49.086Z,-0.04
2022-11-15T03:15:23.626Z,-0.04
2022-11-15T03:17:59.914Z,-0.04
2022-11-15T03:20:33.583Z,-0.04
2022-11-15T03:23:09.071Z,-0.03
2022-11-15T03:25:44.106Z,0.01
2022-11-15T03:28:19.806Z,0.04
2022-11-15T03:30:52.278Z,0.03
2022-11-15T03:33:25.084Z,0.02
2022-11-15T03:35:57.166Z,0.04
2022-11-15T03:38:32.931Z,0.05
2022-11-15T03:41:07.282Z,0.02
2022-11-15T03:43:45.101Z,0.03
2022-11-15T03:46:22.121Z,0.03
2022-11-15T03:48:56.427Z,0.04
2022-11-15T03:51:27.590Z,0.06
2022-11-15T03:53:58.575Z,0.05
2022-11-15T03:56:29.626Z,0.01
2022-11-15T03:59:00.672Z,-0.05
2022-11-15T04:01:31.653Z,-0.10
2022-11-15T04:04:02.739Z,-0.10
2022-11-15T04:06:33.894Z,-0.10
2022-11-15T04:09:05.340Z,-0.09
2022-11-15T04:11:36.350Z,-0.10
2022-11-15T04:14:07.319Z,-0.09
2022-11-15T04:16:43.596Z,-0.09
2022-11-15T04:19:32.364Z,-0.11
2022-11-15T04:22:20.723Z,-0.15
2022-11-15T04:24:51.752Z,-0.18
2022-11-15T04:27:22.856Z,-0.19
2022-11-15T04:29:53.816Z,-0.21
2022-11-15T04:32:24.878Z,-0.20
2022-11-15T04:34:55.806Z,-0.20
2022-11-15T04:37:26.604Z,-0.20
2022-11-15T04:39:57.594Z,-0.20
2022-11-15T04:42:28.505Z,-0.19
2022-11-15T04:44:59.490Z,-0.19
2022-11-15T04:47:30.575Z,-0.18
2022-11-15T04:50:01.836Z,-0.17
2022-11-15T04:52:32.820Z,-0.17
2022-11-15T04:55:07.932Z,-0.16
2022-11-15T04:57:39.847Z,-0.15
2022-11-15T05:00:14.201Z,-0.13
2022-11-15T05:03:22.647Z,-0.15
2022-11-15T05:05:53.660Z,-0.15
2022-11-15T05:08:24.475Z,-0.16
2022-11-15T05:10:55.503Z,-0.18
2022-11-15T05:13:26.359Z,-0.21
2022-11-15T05:15:57.219Z,-0.21
2022-11-15T05:18:28.702Z,-0.25
2022-11-15T05:21:04.838Z,-0.39
2022-11-15T05:23:35.853Z,-0.54
2022-11-15T05:26:09.475Z,-0.65
2022-11-15T05:28:40.986Z,-0.69
2022-11-15T05:31:13.030Z,-0.67
2022-11-15T05:33:45.419Z,-0.64
2022-11-15T05:36:21.156Z,-0.61
2022-11-15T05:39:10.572Z,-0.60
2022-11-15T05:41:45.824Z,-0.63
2022-11-15T05:44:19.929Z,-0.70
2022-11-15T05:46:54.631Z,-0.75
2022-11-15T05:49:31.493Z,-0.77
2022-11-15T05:52:05.532Z,-0.78
2022-11-15T05:54:37.994Z,-0.79
2022-11-15T05:57:09.436Z,-0.79
2022-11-15T05:59:41.942Z,-0.79
2022-11-15T06:02:13.554Z,-0.77
2022-11-15T06:04:44.356Z,-0.73
2022-11-15T06:07:15.169Z,-0.67
2022-11-15T06:09:46.020Z,-0.60
2022-11-15T06:12:17.086Z,-0.57
2022-11-15T06:14:47.951Z,-0.54
2022-11-15T06:17:18.700Z,-0.44
2022-11-15T06:19:49.610Z,-0.34
2022-11-15T06:22:20.621Z,-0.26
2022-11-15T06:24:51.431Z,-0.20
2022-11-15T06:27:22.274Z,-0.13
2022-11-15T06:29:53.399Z,-0.07
2022-11-15T06:32:24.955Z,-0.06
2022-11-15T06:34:55.803Z,-0.08
2022-11-15T06:37:26.845Z,-0.10
2022-11-15T06:39:57.898Z,-0.19
2022-11-15T06:42:28.770Z,-0.26
2022-11-15T06:44:59.732Z,-0.27
2022-11-15T06:47:30.618Z,-0.31
2022-11-15T06:50:01.697Z,-0.38
2022-11-15T06:52:34.225Z,-0.41
2022-11-15T06:55:05.642Z,-0.34
2022-11-15T06:57:36.587Z,-0.26
2022-11-15T07:00:09.009Z,-0.17
2022-11-15T07:02:40.283Z,-0.09
2022-11-15T07:05:12.331Z,-0.05
2022-11-15T07:07:43.365Z,-0.03
2022-11-15T07:10:13.040Z,-0.02
2022-11-15T07:12:43.895Z,0.02
2022-11-15T07:15:14.876Z,0.10
2022-11-15T07:17:46.022Z,0.19
2022-11-15T07:20:18.389Z,0.26
2022-11-15T07:22:49.766Z,0.33
2022-11-15T07:25:21.027Z,0.39
2022-11-15T07:27:59.378Z,0.42
2022-11-15T07:30:31.233Z,0.43
2022-11-15T07:33:03.553Z,0.46
2022-11-15T07:35:34.497Z,0.51
2022-11-15T07:38:06.422Z,0.57
2022-11-15T07:40:37.420Z,0.64
2022-11-15T07:43:12.130Z,0.69
2022-11-15T07:45:46.256Z,0.68
2022-11-15T07:48:17.269Z,0.63
2022-11-15T07:50:48.716Z,0.64
2022-11-15T07:53:19.757Z,0.63
2022-11-15T07:55:50.490Z,0.67
2022-11-15T07:58:21.678Z,0.77
2022-11-15T08:00:52.610Z,0.90
2022-11-15T08:03:23.538Z,1.04
2022-11-15T08:05:55.375Z,1.17
2022-11-15T08:08:26.616Z,1.29
2022-11-15T08:10:59.194Z,1.38
2022-11-15T08:13:30.249Z,1.48
2022-11-15T08:16:03.897Z,1.59
2022-11-15T08:18:34.908Z,1.71
2022-11-15T08:21:06.493Z,1.82
2022-11-15T08:23:37.908Z,1.94
2022-11-15T08:26:09.078Z,2.06
2022-11-15T08:28:40.071Z,2.15
2022-11-15T08:31:17.662Z,2.24
2022-11-15T08:33:49.069Z,2.33
2022-11-15T08:36:20.423Z,2.41
2022-11-15T08:38:49.674Z,2.50
2022-11-15T08:41:26.991Z,2.57
2022-11-15T08:43:57.842Z,2.62
2022-11-15T08:46:28.834Z,2.70
2022-11-15T08:48:58.797Z,2.75
2022-11-15T08:51:29.753Z,2.83
2022-11-15T08:54:00.860Z,2.95
2022-11-15T08:56:31.865Z,3.05
2022-11-15T08:59:02.888Z,3.17
2022-11-15T09:01:36.735Z,3.28
2022-11-15T09:04:07.937Z,3.40
2022-11-15T09:06:43.082Z,3.54
2022-11-15T09:09:14.553Z,3.68
2022-11-15T09:11:45.435Z,3.80
2022-11-15T09:14:17.624Z,3.96
2022-11-15T09:16:48.534Z,4.10
2022-11-15T09:19:19.830Z,4.28
2022-11-15T09:21:50.944Z,4.47
2022-11-15T09:24:22.186Z,4.67
2022-11-15T09:26:53.630Z,4.89
2022-11-15T09:29:24.493Z,5.05
2022-11-15T09:31:56.977Z,5.21
2022-11-15T09:34:28.089Z,5.37
2022-11-15T09:36:59.019Z,5.52
2022-11-15T09:39:28.562Z,5.66
2022-11-15T09:42:32.644Z,5.79
2022-11-15T09:45:17.119Z,5.95
2022-11-15T09:48:02.199Z,6.12
2022-11-15T09:50:38.954Z,6.26
2022-11-15T09:53:15.784Z,6.36
2022-11-15T09:56:02.520Z,6.41
2022-11-15T09:58:42.170Z,6.48
2022-11-15T10:01:22.105Z,6.58
2022-11-15T10:03:53.424Z,6.67
2022-11-15T10:06:27.706Z,6.73
2022-11-15T10:09:03.752Z,6.75
2022-11-15T10:11:38.965Z,6.75
2022-11-15T10:14:15.890Z,6.74
2022-11-15T10:17:13.608Z,6.77
2022-11-15T10:19:54.866Z,6.79
2022-11-15T10:22:32.075Z,6.83
2022-11-15T10:25:18.356Z,6.90
2022-11-15T10:27:55.806Z,6.98
2022-11-15T10:30:32.674Z,7.01
2022-11-15T10:33:18.512Z,7.00
2022-11-15T10:35:49.400Z,6.99
2022-11-15T10:38:20.183Z,6.97
2022-11-15T10:41:08.238Z,6.99
2022-11-15T10:43:39.499Z,7.02
2022-11-15T10:46:45.510Z,7.07
2022-11-15T10:49:19.146Z,7.10
2022-11-15T10:51:53.484Z,7.09
2022-11-15T10:54:29.687Z,7.06
2022-11-15T10:57:07.065Z,7.03
2022-11-15T10:59:39.385Z,7.02
2022-11-15T11:02:30.319Z,7.01
2022-11-15T11:05:02.268Z,7.04
2022-11-15T11:07:35.880Z,7.06
2022-11-15T11:10:49.941Z,7.10
2022-11-15T11:13:24.042Z,7.14
2022-11-15T11:16:00.254Z,7.15
2022-11-15T11:18:37.002Z,7.14
2022-11-15T11:21:13.681Z,7.14
2022-11-15T11:23:54.075Z,7.13
2022-11-15T11:26:42.901Z,7.15
2022-11-15T11:29:28.402Z,7.17
2022-11-15T11:32:05.335Z,7.16
2022-11-15T11:34:49.673Z,7.13
2022-11-15T11:37:33.108Z,7.10
2022-11-15T11:40:16.483Z,7.06
2022-11-15T11:43:00.244Z,7.04
2022-11-15T11:45:50.893Z,7.07
2022-11-15T11:48:41.291Z,7.13
2022-11-15T11:51:18.766Z,7.14
2022-11-15T11:53:57.087Z,7.11
2022-11-15T11:56:31.214Z,7.07
2022-11-15T11:59:21.388Z,7.05
2022-11-15T12:01:52.486Z,7.07
2022-11-15T12:04:31.509Z,7.11
2022-11-15T12:07:07.816Z,7.14
2022-11-15T12:09:43.671Z,7.14
2022-11-15T12:12:25.342Z,7.16
2022-11-15T12:14:59.711Z,7.21
2022-11-15T12:17:37.317Z,7.26
2022-11-15T12:20:20.716Z,7.28
2022-11-15T12:22:58.109Z,7.32
2022-11-15T12:25:35.603Z,7.39
2022-11-15T12:28:17.744Z,7.41
2022-11-15T12:30:53.151Z,7.42
2022-11-15T12:33:44.741Z,7.44
2022-11-15T12:36:36.785Z,7.48
2022-11-15T12:39:09.948Z,7.48
2022-11-15T12:41:42.357Z,7.49
2022-11-15T12:44:34.951Z,7.54
2022-11-15T12:47:24.577Z,7.56
2022-11-15T12:49:55.877Z,7.51
2022-11-15T12:52:27.263Z,7.43
2022-11-15T12:55:06.279Z,7.40
2022-11-15T12:57:42.729Z,7.41
2022-11-15T13:00:41.129Z,7.40
2022-11-15T13:03:30.141Z,7.41
2022-11-15T13:06:27.769Z,7.46
2022-11-15T13:08:58.682Z,7.47
2022-11-15T13:11:50.765Z,7.48
2022-11-15T13:14:46.670Z,7.48
2022-11-15T13:17:38.850Z,7.46
2022-11-15T13:20:24.532Z,7.41
2022-11-15T13:23:03.327Z,7.38
2022-11-15T13:26:05.771Z,7.35
2022-11-15T13:28:39.095Z,7.30
2022-11-15T13:31:24.932Z,7.26
2022-11-15T13:33:58.326Z,7.21
2022-11-15T13:36:34.179Z,7.20
2022-11-15T13:39:08.137Z,7.17
2022-11-15T13:41:47.456Z,7.14
2022-11-15T13:44:26.059Z,7.12
2022-11-15T13:47:08.503Z,7.11
2022-11-15T13:49:39.381Z,7.10
2022-11-15T13:52:09.722Z,7.11
2022-11-15T13:54:45.633Z,7.10
2022-11-15T13:57:21.420Z,7.09
2022-11-15T13:59:55.072Z,7.08
2022-11-15T14:02:32.267Z,7.09
2022-11-15T14:05:13.925Z,7.12
2022-11-15T14:07:57.414Z,7.15
2022-11-15T14:10:34.302Z,7.16
2022-11-15T14:13:06.199Z,7.16
2022-11-15T14:15:38.971Z,7.16
2022-11-15T14:18:34.887Z,7.16
2022-11-15T14:21:10.754Z,7.16
2022-11-15T14:23:44.271Z,7.14
2022-11-15T14:26:32.386Z,7.14
2022-11-15T14:29:26.569Z,7.11
2022-11-15T14:32:08.446Z,7.10
2022-11-15T14:34:39.434Z,7.11
2022-11-15T14:37:18.802Z,7.12
2022-11-15T14:39:58.705Z,7.11
2022-11-15T14:42:32.013Z,7.10
2022-11-15T14:45:04.215Z,7.09
2022-11-15T14:47:35.342Z,7.05
2022-11-15T14:50:07.639Z,7.04
2022-11-15T14:52:38.495Z,7.04
2022-11-15T14:55:19.231Z,7.05
2022-11-15T14:57:50.359Z,7.07
2022-11-15T15:00:22.640Z,7.08
2022-11-15T15:02:56.112Z,7.12
2022-11-15T15:05:34.045Z,7.13
2022-11-15T15:08:06.406Z,7.13
2022-11-15T15:10:40.935Z,7.13
2022-11-15T15:13:19.960Z,7.13
2022-11-15T15:15:52.600Z,7.14
2022-11-15T15:18:23.812Z,7.14
2022-11-15T15:21:01.096Z,7.15
2022-11-15T15:23:32.442Z,7.15
2022-11-15T15:26:01.746Z,7.14
2022-11-15T15:28:34.896Z,7.12
2022-11-15T15:31:08.496Z,7.11
2022-11-15T15:33:39.872Z,7.10
2022-11-15T15:36:13.111Z,7.09
2022-11-15T15:38:44.136Z,7.08
2022-11-15T15:41:16.418Z,7.05
2022-11-15T15:43:48.491Z,7.06
2022-11-15T15:46:20.753Z,7.03
2022-11-15T15:48:51.841Z,7.01
2022-11-15T15:51:22.837Z,7.01
2022-11-15T15:53:53.843Z,7.01
2022-11-15T15:56:25.050Z,7.00
2022-11-15T15:58:56.555Z,6.99
2022-11-15T16:01:27.852Z,6.98
2022-11-15T16:03:58.855Z,6.95
2022-11-15T16:06:45.173Z,6.92
2022-11-15T16:09:18.720Z,6.90
2022-11-15T16:11:50.535Z,6.88
2022-11-15T16:14:21.665Z,6.86
2022-11-15T16:16:51.004Z,6.85
2022-11-15T16:19:22.012Z,6.83
2022-11-15T16:21:53.988Z,6.82
2022-11-15T16:24:24.952Z,6.81
2022-11-15T16:26:55.938Z,6.80
2022-11-15T16:29:27.602Z,6.79
2022-11-15T16:31:58.902Z,6.81
2022-11-15T16:34:32.972Z,6.81
2022-11-15T16:37:05.869Z,6.81
2022-11-15T16:39:35.447Z,6.82
2022-11-15T16:42:06.545Z,6.82
2022-11-15T16:44:37.549Z,6.82
2022-11-15T16:47:14.033Z,6.83
2022-11-15T16:49:46.420Z,6.82
2022-11-15T16:52:21.329Z,6.82
2022-11-15T16:54:53.061Z,6.83
2022-11-15T16:57:23.898Z,6.84
2022-11-15T16:59:55.141Z,6.84
2022-11-15T17:02:26.049Z,6.83
2022-11-15T17:04:55.458Z,6.82
2022-11-15T17:07:26.546Z,6.80
2022-11-15T17:09:57.519Z,6.80
2022-11-15T17:12:28.719Z,6.79
2022-11-15T17:14:59.833Z,6.77
2022-11-15T17:17:31.182Z,6.75
2022-11-15T17:20:05.176Z,6.74
2022-11-15T17:22:36.350Z,6.74
2022-11-15T17:25:06.267Z,6.75
2022-11-15T17:27:35.629Z,6.74
2022-11-15T17:30:08.423Z,6.71
2022-11-15T17:32:40.092Z,6.73
2022-11-15T17:35:15.525Z,6.73
2022-11-15T17:37:48.344Z,6.73
2022-11-15T17:40:19.713Z,6.75
2022-11-15T17:42:50.731Z,6.76
2022-11-15T17:45:21.836Z,6.76
2022-11-15T17:47:53.786Z,6.75
2022-11-15T17:50:25.028Z,6.75
2022-11-15T17:52:55.004Z,6.75
2022-11-15T17:55:26.013Z,6.73
2022-11-15T17:57:55.427Z,6.74
2022-11-15T18:00:26.318Z,6.74
2022-11-15T18:02:59.407Z,6.73
2022-11-15T18:05:30.400Z,6.75
2022-11-15T18:08:01.443Z,6.74
2022-11-15T18:10:32.734Z,6.75
2022-11-15T18:13:03.613Z,6.76
2022-11-15T18:15:34.582Z,6.75
2022-11-15T18:18:04.153Z,6.78
2022-11-15T18:20:35.377Z,6.76
2022-11-15T18:23:06.707Z,6.77
2022-11-15T18:25:37.715Z,6.78
2022-11-15T18:28:08.756Z,6.79
2022-11-15T18:30:39.649Z,6.80
2022-11-15T18:33:10.606Z,6.78
2022-11-15T18:35:41.738Z,6.78
2022-11-15T18:38:12.660Z,6.79
2022-11-15T18:40:43.814Z,6.80
2022-11-15T18:43:14.733Z,6.80
2022-11-15T18:45:45.690Z,6.82
2022-11-15T18:48:16.903Z,6.83
2022-11-15T18:50:46.576Z,6.84
2022-11-15T18:53:18.670Z,6.80
2022-11-15T18:55:49.784Z,6.79
2022-11-15T18:58:23.027Z,6.79
2022-11-15T19:00:52.479Z,6.81
2022-11-15T19:03:23.581Z,6.79
2022-11-15T19:06:01.514Z,6.78
2022-11-15T19:08:35.376Z,6.77
2022-11-15T19:11:10.355Z,6.75
2022-11-15T19:13:41.706Z,6.74
2022-11-15T19:16:14.978Z,6.73
2022-11-15T19:18:46.012Z,6.75
2022-11-15T19:21:17.823Z,6.77
2022-11-15T19:23:48.833Z,6.76
2022-11-15T19:26:20.023Z,6.76
2022-11-15T19:28:54.142Z,6.77
2022-11-15T19:31:27.037Z,6.75
2022-11-15T19:33:59.676Z,6.79
2022-11-15T19:36:33.588Z,6.80
2022-11-15T19:39:09.215Z,6.82
2022-11-15T19:41:42.865Z,6.83
2022-11-15T19:44:14.974Z,6.83
2022-11-15T19:46:46.576Z,6.82
2022-11-15T19:49:17.684Z,6.81
2022-11-15T19:51:49.289Z,6.79
2022-11-15T19:54:20.183Z,6.78
2022-11-15T19:56:49.849Z,6.76
2022-11-15T19:59:21.780Z,6.75
2022-11-15T20:01:52.676Z,6.74
2022-11-15T20:04:23.536Z,6.76
2022-11-15T20:06:53.192Z,6.75
2022-11-15T20:09:25.965Z,6.72
2022-11-15T20:11:58.763Z,6.73
2022-11-15T20:14:30.430Z,6.73
2022-11-15T20:17:01.263Z,6.73
2022-11-15T20:19:32.212Z,6.73
2022-11-15T20:22:03.196Z,6.73
2022-11-15T20:24:32.778Z,6.72
2022-11-15T20:27:03.765Z,6.70
2022-11-15T20:29:33.194Z,6.70
2022-11-15T20:32:04.124Z,6.68
2022-11-15T20:34:35.314Z,6.67
2022-11-15T20:37:06.492Z,6.68
2022-11-15T20:39:37.798Z,6.69
2022-11-15T20:42:09.467Z,6.67
2022-11-15T20:44:40.334Z,6.66
2022-11-15T20:47:09.730Z,6.63
2022-11-15T20:49:40.533Z,6.58
2022-11-15T20:52:11.479Z,6.55
2022-11-15T20:54:42.482Z,6.55
2022-11-15T20:57:13.205Z,6.54
2022-11-15T20:59:44.584Z,6.51
2022-11-15T21:02:16.557Z,6.49
2022-11-15T21:04:48.203Z,6.49
2022-11-15T21:07:17.799Z,6.49
2022-11-15T21:10:12.023Z,6.48
2022-11-15T21:12:42.900Z,6.50
2022-11-15T21:15:14.151Z,6.53
2022-11-15T21:17:45.235Z,6.56
2022-11-15T21:20:16.831Z,6.58
2022-11-15T21:22:48.677Z,6.62
2022-11-15T21:25:19.895Z,6.64
2022-11-15T21:27:51.627Z,6.66
2022-11-15T21:30:22.829Z,6.67
2022-11-15T21:32:53.766Z,6.68
2022-11-15T21:35:24.837Z,6.68
2022-11-15T21:37:56.981Z,6.71
2022-11-15T21:40:28.457Z,6.71
2022-11-15T21:42:59.248Z,6.74
2022-11-15T21:45:30.110Z,6.76
2022-11-15T21:48:00.807Z,6.78
2022-11-15T21:50:30.523Z,6.80
2022-11-15T21:53:01.577Z,6.80
2022-11-15T21:55:32.544Z,6.81
2022-11-15T21:58:03.497Z,6.83
2022-11-15T22:00:52.321Z,6.84
2022-11-15T22:03:23.287Z,6.85
2022-11-15T22:05:54.258Z,6.86
2022-11-15T22:08:25.413Z,6.87
2022-11-15T22:10:56.961Z,6.88
2022-11-15T22:13:28.701Z,6.88
2022-11-15T22:15:59.800Z,6.89
2022-11-15T22:18:30.994Z,6.90
2022-11-15T22:21:05.356Z,6.91
2022-11-15T22:23:37.319Z,6.89
2022-11-15T22:26:09.277Z,6.88
2022-11-15T22:28:40.800Z,6.85
2022-11-15T22:31:12.409Z,6.83
2022-11-15T22:33:43.838Z,6.83
2022-11-15T22:36:15.378Z,6.84
2022-11-15T22:38:46.725Z,6.85
2022-11-15T22:41:16.095Z,6.86
2022-11-15T22:43:48.295Z,6.85
2022-11-15T22:46:19.200Z,6.86
2022-11-15T22:48:50.273Z,6.88
2022-11-15T22:51:21.609Z,6.88
2022-11-15T22:53:52.750Z,6.89
2022-11-15T22:56:22.002Z,6.90
2022-11-15T22:58:52.943Z,6.89
2022-11-15T23:01:24.349Z,6.90
2022-11-15T23:03:55.484Z,6.91
2022-11-15T23:06:24.894Z,6.92
2022-11-15T23:08:55.905Z,6.90
2022-11-15T23:11:46.623Z,6.89
2022-11-15T23:14:17.395Z,6.91
2022-11-15T23:16:49.013Z,6.92
2022-11-15T23:19:20.043Z,6.93
2022-11-15T23:22:07.015Z,6.94
2022-11-15T23:24:38.099Z,6.94
2022-11-15T23:27:10.742Z,6.96
2022-11-15T23:29:56.113Z,6.97
2022-11-15T23:32:44.644Z,6.96
2022-11-15T23:35:15.795Z,6.95
2022-11-15T23:37:45.281Z,6.94
2022-11-15T23:40:16.669Z,6.92
2022-11-15T23:42:47.654Z,6.88
2022-11-15T23:45:17.377Z,6.87
2022-11-15T23:47:48.623Z,6.86
2022-11-15T23:50:20.027Z,6.87
2022-11-15T23:52:51.091Z,6.89
2022-11-15T23:55:22.101Z,6.90
2022-11-15T23:57:51.471Z,6.91
